Terminal Aerodrome Forecast
Issued by NWS Melbourne, FL

Home | Current Version | Previous Version | Text Only | Print | Product List | Glossary On
Versions: 1 2 3 4 5 6 7 8 9 10 11 12 13 14 15 16 17 18 19 20 21 22 23 24 25
000
FTUS42 KMLB 251121
TAFMCO
TAF
KMCO 251121Z 2512/2612 VRB03KT P6SM FEW020 BKN100
     FM251400 18007KT P6SM SCT030 SCT100 SCT250
     FM252100 14008KT P6SM VCTS SCT040CB BKN060 BKN100
      TEMPO 2522/2602 3SM TSRA BKN030CB
     FM260200 VRB04KT P6SM VCSH SCT025 BKN040 OVC060=

USA.gov is the U.S. government's official web portal to all federal, state and local government web resources and services.